createdAt,value
2019-05-02T00:04:33.019Z,17.12
2019-05-02T00:07:28.678Z,17.17
2019-05-02T00:10:19.919Z,15.83
2019-05-02T00:16:01.781Z,16.15
2019-05-02T00:18:49.772Z,17.98
2019-05-02T00:21:32.803Z,17.35
2019-05-02T00:24:18.352Z,17.80
2019-05-02T00:27:06.443Z,18.07
2019-05-02T00:29:58.642Z,17.52
2019-05-02T00:32:44.548Z,18.27
2019-05-02T00:35:32.557Z,18.37
2019-05-02T00:38:20.551Z,18.87
2019-05-02T00:41:08.544Z,19.40
2019-05-02T00:43:56.554Z,19.70
2019-05-02T00:46:44.609Z,19.85
2019-05-02T00:49:35.434Z,18.35
2019-05-02T00:52:22.403Z,17.40
2019-05-02T00:55:10.360Z,17.75
2019-05-02T00:57:58.333Z,17.40
2019-05-02T01:06:59.798Z,18.20
2019-05-02T01:09:48.071Z,19.48
2019-05-02T01:12:39.976Z,19.75
2019-05-02T01:15:25.808Z,19.85
2019-05-02T01:17:54.512Z,18.95
2019-05-02T01:20:27.420Z,19.82
2019-05-02T01:22:54.243Z,18.95
2019-05-02T01:25:42.388Z,20.52
2019-05-02T01:28:54.096Z,19.27
2019-05-02T01:31:58.267Z,20.62
2019-05-02T01:35:05.305Z,20.52
2019-05-02T01:38:12.344Z,18.87
2019-05-02T01:41:00.427Z,22.02
2019-05-02T01:43:48.408Z,21.73
2019-05-02T01:46:36.866Z,22.55
2019-05-02T01:49:24.876Z,21.42
2019-05-02T01:52:12.950Z,22.32
2019-05-02T01:55:00.948Z,23.20
2019-05-02T01:57:48.957Z,23.70
2019-05-02T02:00:40.937Z,22.60
2019-05-02T02:03:27.018Z,22.25
2019-05-02T02:06:15.127Z,22.48
2019-05-02T02:09:07.775Z,22.22
2019-05-02T02:11:52.979Z,22.22
2019-05-02T02:14:40.982Z,22.90
2019-05-02T02:17:29.325Z,23.00
2019-05-02T02:20:14.077Z,23.60
2019-05-02T02:26:00.950Z,23.00
2019-05-02T02:28:48.941Z,22.30
2019-05-02T02:31:39.523Z,23.60
2019-05-02T02:34:32.347Z,23.75
2019-05-02T02:37:16.511Z,23.83
2019-05-02T02:40:04.744Z,24.65
2019-05-02T02:42:52.782Z,24.85
2019-05-02T02:48:55.234Z,23.80
2019-05-02T02:51:43.188Z,24.77
2019-05-02T02:54:36.514Z,24.60
2019-05-02T02:57:26.271Z,23.47
2019-05-02T03:00:11.232Z,24.92
2019-05-02T03:03:00.374Z,25.17
2019-05-02T03:05:48.465Z,25.68
2019-05-02T03:08:44.578Z,26.20
2019-05-02T03:17:31.587Z,25.92
2019-05-02T03:20:12.564Z,25.65
2019-05-02T03:22:51.106Z,26.62
2019-05-02T03:25:50.687Z,24.70
2019-05-02T03:28:28.866Z,25.72
2019-05-02T03:31:29.816Z,26.80
2019-05-02T03:34:06.596Z,26.15
2019-05-02T03:36:54.666Z,27.00
2019-05-02T03:39:49.238Z,27.17
2019-05-02T03:42:43.754Z,27.73
2019-05-02T03:45:22.226Z,26.37
2019-05-02T03:48:10.226Z,26.48
2019-05-02T03:50:58.248Z,26.40
2019-05-02T03:53:46.280Z,28.35
2019-05-02T03:56:34.274Z,26.00
2019-05-02T03:59:22.250Z,27.82
2019-05-02T04:02:14.049Z,26.40
2019-05-02T04:05:01.132Z,27.67
2019-05-02T04:07:49.747Z,38.48
2019-05-02T04:10:59.386Z,91.55
2019-05-02T04:13:46.744Z,26.52
2019-05-02T04:16:34.771Z,26.95
2019-05-02T04:19:28.750Z,27.93
2019-05-02T04:22:08.953Z,27.30
2019-05-02T04:24:56.422Z,28.02
2019-05-02T04:27:42.995Z,26.50
2019-05-02T04:30:30.969Z,26.55
2019-05-02T04:33:19.005Z,28.90
2019-05-02T04:36:14.244Z,27.30
2019-05-02T04:38:59.466Z,27.45
2019-05-02T04:41:48.550Z,42.80
2019-05-02T04:44:46.374Z,52.75
2019-05-02T04:47:28.836Z,25.75
2019-05-02T04:50:18.508Z,26.70
2019-05-02T04:53:08.382Z,25.75
2019-05-02T04:59:17.856Z,24.67
2019-05-02T05:02:01.285Z,24.65
2019-05-02T05:04:49.488Z,26.20
2019-05-02T05:07:43.819Z,24.35
2019-05-02T05:10:28.250Z,25.37
2019-05-02T05:13:21.605Z,52.85
2019-05-02T05:16:08.150Z,29.57
2019-05-02T05:18:57.857Z,27.10
2019-05-02T05:21:38.739Z,26.40
2019-05-02T05:27:21.213Z,26.37
2019-05-02T05:30:11.356Z,24.72
2019-05-02T05:32:55.694Z,26.60
2019-05-02T05:35:48.746Z,26.10
2019-05-02T05:38:36.023Z,31.93
2019-05-02T05:41:23.555Z,23.98
2019-05-02T05:44:11.822Z,25.72
2019-05-02T05:46:42.474Z,24.92
2019-05-02T05:49:30.507Z,27.67
2019-05-02T05:52:02.233Z,24.57
2019-05-02T05:54:49.070Z,26.93
2019-05-02T06:00:33.360Z,27.67
2019-05-02T06:11:50.670Z,28.65
2019-05-02T06:16:36.456Z,29.37
2019-05-02T06:19:24.592Z,28.23
2019-05-02T06:22:05.128Z,29.35
2019-05-02T06:24:46.248Z,28.27
2019-05-02T06:27:33.839Z,27.90
2019-05-02T06:30:40.890Z,29.05
2019-05-02T06:33:30.457Z,29.63
2019-05-02T06:36:18.792Z,28.80
2019-05-02T06:39:06.842Z,28.05
2019-05-02T06:41:57.547Z,29.12
2019-05-02T06:44:44.523Z,28.45
2019-05-02T06:47:35.889Z,90.80
2019-05-02T06:50:24.768Z,26.90
2019-05-02T06:53:12.032Z,29.27
2019-05-02T06:56:00.088Z,27.48
2019-05-02T06:58:48.170Z,27.93
2019-05-02T07:01:36.442Z,30.12
2019-05-02T07:04:25.031Z,29.35
2019-05-02T07:07:14.269Z,35.83
2019-05-02T07:10:02.506Z,30.43
2019-05-02T07:12:51.197Z,29.07
2019-05-02T07:15:59.053Z,29.37
2019-05-02T07:22:04.065Z,29.05
2019-05-02T07:24:39.894Z,30.32
2019-05-02T07:27:33.114Z,29.63
2019-05-02T07:33:26.926Z,32.05
2019-05-02T07:36:15.024Z,31.35
2019-05-02T07:42:00.630Z,31.60
2019-05-02T07:44:47.672Z,33.35
2019-05-02T07:47:40.315Z,32.58
2019-05-02T07:50:25.586Z,31.75
2019-05-02T07:53:14.359Z,54.38
2019-05-02T07:56:03.322Z,34.75
2019-05-02T07:58:51.325Z,34.95
2019-05-02T08:01:39.294Z,33.92
2019-05-02T08:04:27.307Z,36.15
2019-05-02T08:07:16.326Z,36.75
2019-05-02T08:10:05.133Z,34.83
2019-05-02T08:15:50.777Z,35.13
2019-05-02T08:18:36.716Z,33.53
2019-05-02T08:21:27.262Z,35.17
2019-05-02T08:24:14.433Z,34.63
2019-05-02T08:27:23.134Z,31.87
2019-05-02T08:33:29.480Z,32.00
2019-05-02T08:39:08.470Z,31.10
2019-05-02T08:41:57.896Z,31.30
2019-05-02T08:44:51.226Z,28.00
2019-05-02T08:47:36.142Z,29.70
2019-05-02T08:50:27.253Z,29.87
2019-05-02T08:53:19.847Z,29.70
2019-05-02T08:56:04.523Z,29.82
2019-05-02T08:58:52.513Z,28.73
2019-05-02T09:01:40.518Z,28.23
2019-05-02T09:04:29.242Z,30.05
2019-05-02T09:07:18.277Z,30.45
2019-05-02T09:10:08.243Z,31.55
2019-05-02T09:12:56.275Z,30.40
2019-05-02T09:15:49.644Z,30.02
2019-05-02T09:18:38.237Z,27.87
2019-05-02T09:21:26.745Z,31.10
2019-05-02T09:24:08.466Z,31.30
2019-05-02T09:26:46.466Z,29.60
2019-05-02T09:29:37.296Z,29.40
2019-05-02T09:32:26.278Z,29.48
2019-05-02T09:35:14.087Z,29.05
2019-05-02T09:38:02.087Z,29.92
2019-05-02T09:40:54.548Z,29.15
2019-05-02T09:43:39.863Z,29.90
2019-05-02T09:46:28.237Z,28.42
2019-05-02T09:49:16.645Z,28.30
2019-05-02T09:52:06.077Z,28.25
2019-05-02T09:55:16.757Z,30.02
2019-05-02T09:58:05.231Z,31.52
2019-05-02T10:01:12.209Z,30.95
2019-05-02T10:04:03.558Z,28.95
2019-05-02T10:06:32.146Z,30.75
2019-05-02T10:09:24.240Z,29.72
2019-05-02T10:12:12.304Z,30.70
2019-05-02T10:14:42.135Z,30.32
2019-05-02T10:23:19.542Z,27.85
2019-05-02T10:25:46.952Z,29.72
2019-05-02T10:28:35.303Z,28.55
2019-05-02T10:31:27.575Z,28.62
2019-05-02T10:34:16.345Z,26.90
2019-05-02T10:37:03.260Z,26.93
2019-05-02T10:39:52.531Z,26.97
2019-05-02T10:42:41.924Z,27.95
2019-05-02T10:54:33.716Z,25.27
2019-05-02T10:57:21.955Z,26.07
2019-05-02T11:03:47.447Z,25.37
2019-05-02T11:06:15.932Z,26.52
2019-05-02T11:09:06.527Z,24.02
2019-05-02T11:11:54.938Z,22.93
2019-05-02T11:15:02.339Z,24.12
2019-05-02T11:17:52.733Z,21.33
2019-05-02T11:20:42.087Z,30.95
2019-05-02T11:23:12.721Z,23.00
2019-05-02T11:25:52.655Z,20.92
2019-05-02T11:28:32.369Z,20.32
2019-05-02T11:31:02.645Z,21.40
2019-05-02T11:33:32.533Z,20.65
2019-05-02T11:36:22.348Z,18.90
2019-05-02T11:39:18.696Z,18.82
2019-05-02T11:42:02.101Z,19.27
2019-05-02T11:44:52.268Z,18.90
2019-05-02T11:47:42.153Z,18.12
2019-05-02T11:50:31.975Z,17.73
2019-05-02T11:53:28.838Z,16.42
2019-05-02T11:56:28.659Z,17.42
2019-05-02T11:59:22.701Z,17.42
2019-05-02T12:02:25.333Z,17.48
2019-05-02T12:05:35.678Z,19.70
2019-05-02T12:08:22.759Z,18.02
2019-05-02T12:11:16.438Z,22.58
2019-05-02T12:14:01.731Z,19.45
2019-05-02T12:16:32.280Z,24.43
2019-05-02T12:19:22.834Z,38.17
2019-05-02T12:22:12.930Z,19.20
2019-05-02T12:24:45.326Z,19.73
2019-05-02T12:27:23.128Z,20.62
2019-05-02T12:30:11.833Z,17.90
2019-05-02T12:33:02.501Z,18.02
2019-05-02T12:35:52.542Z,19.52
2019-05-02T12:38:42.025Z,19.32
2019-05-02T12:41:30.215Z,19.00
2019-05-02T12:44:37.319Z,19.15
2019-05-02T12:47:26.171Z,21.37
2019-05-02T12:50:14.485Z,18.20
2019-05-02T12:53:03.042Z,19.15
2019-05-02T12:55:52.703Z,21.20
2019-05-02T12:58:42.137Z,20.75
2019-05-02T13:01:32.970Z,19.73
2019-05-02T13:04:22.814Z,19.17
2019-05-02T13:07:12.650Z,29.85
2019-05-02T13:10:02.435Z,20.52
2019-05-02T13:12:50.422Z,17.57
2019-05-02T13:15:38.606Z,18.90
2019-05-02T13:18:29.259Z,17.95
2019-05-02T13:27:12.649Z,17.95
2019-05-02T13:29:53.599Z,20.62
2019-05-02T13:32:57.717Z,20.52
2019-05-02T13:35:42.053Z,21.30
2019-05-02T13:38:22.722Z,21.40
2019-05-02T13:41:02.647Z,22.13
2019-05-02T13:47:00.212Z,21.20
2019-05-02T13:49:54.059Z,19.10
2019-05-02T13:52:38.403Z,26.23
2019-05-02T13:55:08.316Z,26.73
2019-05-02T13:57:45.340Z,26.75
2019-05-02T14:13:04.479Z,27.73
2019-05-02T14:16:14.399Z,31.48
2019-05-02T14:19:03.050Z,26.55
2019-05-02T14:21:51.901Z,27.67
2019-05-02T14:24:42.200Z,28.60
2019-05-02T14:27:32.185Z,30.85
2019-05-02T14:36:27.637Z,29.55
2019-05-02T14:39:35.578Z,29.18
2019-05-02T14:42:26.140Z,31.60
2019-05-02T14:45:27.230Z,38.92
2019-05-02T14:48:17.934Z,32.42
2019-05-02T14:50:53.636Z,31.68
2019-05-02T14:53:42.996Z,32.67
2019-05-02T14:56:52.194Z,33.05
2019-05-02T14:59:42.714Z,30.95
2019-05-02T15:02:50.033Z,32.25
2019-05-02T15:05:59.018Z,34.20
2019-05-02T15:08:48.293Z,33.98
2019-05-02T15:14:32.951Z,35.20
2019-05-02T15:17:22.710Z,34.20
2019-05-02T15:20:13.019Z,32.93
2019-05-02T15:23:02.569Z,36.45
2019-05-02T15:25:52.569Z,35.40
2019-05-02T15:28:39.588Z,34.53
2019-05-02T15:35:06.051Z,35.98
2019-05-02T15:37:56.601Z,31.55
2019-05-02T15:40:53.508Z,31.80
2019-05-02T15:43:44.500Z,27.75
2019-05-02T15:56:02.806Z,22.80
2019-05-02T15:58:52.207Z,20.75
2019-05-02T16:05:05.484Z,14.50
2019-05-02T16:08:05.443Z,13.30
2019-05-02T16:10:45.239Z,13.15
2019-05-02T16:14:10.553Z,13.05
2019-05-02T16:17:42.196Z,12.40
2019-05-02T16:20:49.308Z,14.55
2019-05-02T16:23:37.991Z,15.48
2019-05-02T16:26:26.377Z,15.83
2019-05-02T16:29:19.513Z,14.58
2019-05-02T16:32:23.899Z,10.78
2019-05-02T16:35:17.262Z,9.43
2019-05-02T16:37:46.758Z,10.13
2019-05-02T16:40:34.849Z,8.63
2019-05-02T16:46:35.974Z,9.45
2019-05-02T16:49:24.457Z,9.78
2019-05-02T16:52:38.118Z,10.38
2019-05-02T16:55:05.213Z,10.78
2019-05-02T16:57:35.176Z,11.88
2019-05-02T17:00:25.566Z,37.67
2019-05-02T17:03:17.428Z,30.48
2019-05-02T17:06:03.868Z,12.75
2019-05-02T17:09:11.935Z,12.73
2019-05-02T17:12:02.028Z,11.83
2019-05-02T17:15:13.704Z,12.82
2019-05-02T17:18:22.791Z,13.03
2019-05-02T17:21:12.660Z,11.33
2019-05-02T17:26:38.938Z,13.10
2019-05-02T17:29:27.694Z,12.47
2019-05-02T17:32:16.683Z,12.07
2019-05-02T17:35:25.744Z,12.00
2019-05-02T17:37:54.757Z,12.45
2019-05-02T17:40:43.050Z,13.00
2019-05-02T17:43:37.456Z,12.18
2019-05-02T17:46:26.098Z,13.95
2019-05-02T17:49:14.279Z,19.70
2019-05-02T17:52:26.720Z,34.18
2019-05-02T17:55:12.179Z,14.78
2019-05-02T17:58:04.601Z,15.20
2019-05-02T18:00:56.045Z,14.45
2019-05-02T18:03:24.075Z,16.50
2019-05-02T18:06:17.164Z,15.80
2019-05-02T18:09:02.560Z,17.00
2019-05-02T18:11:51.778Z,16.82
2019-05-02T18:14:42.156Z,15.90
2019-05-02T18:17:31.779Z,16.52
2019-05-02T18:20:21.961Z,17.67
2019-05-02T18:23:12.276Z,17.62
2019-05-02T18:25:52.735Z,17.48
2019-05-02T18:28:49.355Z,15.00
2019-05-02T18:31:39.616Z,14.35
2019-05-02T18:37:58.033Z,13.22
2019-05-02T18:40:36.289Z,40.50
2019-05-02T18:43:24.747Z,15.13
2019-05-02T18:46:13.083Z,14.20
2019-05-02T18:52:02.429Z,14.70
2019-05-02T18:54:51.752Z,15.23
2019-05-02T18:57:42.337Z,16.15
2019-05-02T19:00:36.169Z,15.18
2019-05-02T19:03:23.102Z,14.18
2019-05-02T19:06:11.751Z,13.78
2019-05-02T19:09:22.834Z,13.28
2019-05-02T19:15:07.171Z,13.08
2019-05-02T19:17:55.885Z,12.13
2019-05-02T19:21:03.502Z,12.85
2019-05-02T19:23:59.404Z,13.15
2019-05-02T19:26:41.661Z,14.18
2019-05-02T19:29:32.078Z,14.65
2019-05-02T19:32:12.306Z,13.80
2019-05-02T19:35:05.421Z,13.98
2019-05-02T19:37:52.480Z,13.98
2019-05-02T19:41:05.490Z,14.07
2019-05-02T19:43:53.413Z,13.95
2019-05-02T19:46:42.717Z,13.70
2019-05-02T19:53:37.958Z,13.05
2019-05-02T20:00:05.269Z,13.32
2019-05-02T20:02:25.991Z,11.63
2019-05-02T20:05:16.517Z,10.72
2019-05-02T20:08:04.600Z,10.65
2019-05-02T20:11:05.343Z,10.08
2019-05-02T20:17:19.952Z,7.10
2019-05-02T20:23:15.597Z,5.95
2019-05-02T20:29:04.357Z,5.30
2019-05-02T20:31:51.596Z,5.30
2019-05-02T20:34:36.828Z,4.85
2019-05-02T20:37:19.523Z,5.50
2019-05-02T20:40:02.965Z,5.05
2019-05-02T20:42:45.231Z,5.67
2019-05-02T20:45:25.761Z,5.75
2019-05-02T20:48:06.932Z,5.03
2019-05-02T20:50:55.135Z,4.95
2019-05-02T20:53:43.547Z,5.28
2019-05-02T20:56:52.009Z,5.47
2019-05-02T20:59:41.742Z,4.85
2019-05-02T21:02:31.875Z,12.95
2019-05-02T21:18:34.107Z,4.53
2019-05-02T21:21:26.399Z,4.62
2019-05-02T21:27:26.510Z,4.50
2019-05-02T21:30:18.061Z,4.20
2019-05-02T21:32:57.048Z,4.20
2019-05-02T21:35:55.600Z,4.10
2019-05-02T21:39:14.860Z,3.17
2019-05-02T21:44:42.219Z,3.80
2019-05-02T21:47:31.966Z,4.70
2019-05-02T21:53:28.023Z,4.47
2019-05-02T21:59:18.285Z,4.17
2019-05-02T22:08:17.548Z,3.50
2019-05-02T22:11:05.599Z,3.55
2019-05-02T22:13:53.709Z,3.65
2019-05-02T22:16:42.124Z,3.20
2019-05-02T22:19:32.331Z,2.98
2019-05-02T22:22:22.854Z,3.67
2019-05-02T22:25:11.613Z,3.42
2019-05-02T22:27:53.874Z,3.37
2019-05-02T22:30:33.967Z,3.65
2019-05-02T22:33:14.797Z,3.45
2019-05-02T22:35:53.691Z,3.22
2019-05-02T22:39:02.072Z,3.65
2019-05-02T22:41:52.476Z,3.25
2019-05-02T22:47:34.242Z,3.05
2019-05-02T22:50:02.925Z,2.95
2019-05-02T22:52:52.240Z,3.05
2019-05-02T22:55:42.453Z,2.77
2019-05-02T22:58:30.883Z,3.45
2019-05-02T23:01:21.625Z,3.25
2019-05-02T23:04:10.000Z,3.65
2019-05-02T23:06:58.055Z,3.25
2019-05-02T23:09:46.357Z,3.45
2019-05-02T23:12:34.400Z,4.22
2019-05-02T23:18:15.950Z,4.00
2019-05-02T23:21:03.958Z,3.98
2019-05-02T23:23:52.383Z,4.12
2019-05-02T23:27:00.891Z,4.15
2019-05-02T23:29:48.929Z,4.58
2019-05-02T23:32:37.004Z,5.45
2019-05-02T23:35:25.008Z,4.83
2019-05-02T23:38:04.068Z,4.60
2019-05-02T23:40:52.625Z,4.95
2019-05-02T23:43:41.983Z,4.85
2019-05-02T23:46:29.959Z,4.28
2019-05-02T23:49:18.016Z,4.42
2019-05-02T23:52:06.020Z,4.85
2019-05-02T23:54:54.004Z,4.80
2019-05-02T23:57:42.230Z,4.60
